sensor_id;sensor_type;location;lat;lon;timestamp;temperature;humidity
76567;DHT22;65428;53.194;6.132;2023-02-01T00:01:54;6.60;92.00
76567;DHT22;65428;53.194;6.132;2023-02-01T00:04:20;6.60;92.00
76567;DHT22;65428;53.194;6.132;2023-02-01T00:06:46;6.60;91.90
76567;DHT22;65428;53.194;6.132;2023-02-01T00:09:11;6.70;92.00
76567;DHT22;65428;53.194;6.132;2023-02-01T00:11:37;6.60;92.00
76567;DHT22;65428;53.194;6.132;2023-02-01T00:14:03;6.80;92.10
76567;DHT22;65428;53.194;6.132;2023-02-01T00:16:30;6.60;92.00
76567;DHT22;65428;53.194;6.132;2023-02-01T00:19:02;6.60;92.00
76567;DHT22;65428;53.194;6.132;2023-02-01T00:21:28;6.60;92.10
76567;DHT22;65428;53.194;6.132;2023-02-01T00:23:54;6.60;91.90
76567;DHT22;65428;53.194;6.132;2023-02-01T00:26:25;6.60;92.00
76567;DHT22;65428;53.194;6.132;2023-02-01T00:28:53;6.60;91.90
76567;DHT22;65428;53.194;6.132;2023-02-01T00:31:18;6.60;91.80
76567;DHT22;65428;53.194;6.132;2023-02-01T00:33:47;6.90;91.90
76567;DHT22;65428;53.194;6.132;2023-02-01T00:36:13;6.80;91.70
76567;DHT22;65428;53.194;6.132;2023-02-01T00:38:39;6.60;91.60
76567;DHT22;65428;53.194;6.132;2023-02-01T00:41:12;6.80;91.50
76567;DHT22;65428;53.194;6.132;2023-02-01T00:43:38;6.80;91.50
76567;DHT22;65428;53.194;6.132;2023-02-01T00:46:04;6.70;91.50
76567;DHT22;65428;53.194;6.132;2023-02-01T00:48:30;6.80;91.50
76567;DHT22;65428;53.194;6.132;2023-02-01T00:51:04;6.80;91.50
76567;DHT22;65428;53.194;6.132;2023-02-01T00:53:31;6.80;91.50
76567;DHT22;65428;53.194;6.132;2023-02-01T00:55:56;6.80;91.70
76567;DHT22;65428;53.194;6.132;2023-02-01T00:58:22;6.80;91.80
76567;DHT22;65428;53.194;6.132;2023-02-01T01:01:11;6.80;91.80
76567;DHT22;65428;53.194;6.132;2023-02-01T01:03:40;6.80;91.90
76567;DHT22;65428;53.194;6.132;2023-02-01T01:06:14;6.80;92.00
76567;DHT22;65428;53.194;6.132;2023-02-01T01:08:41;6.80;91.90
76567;DHT22;65428;53.194;6.132;2023-02-01T01:11:08;6.80;91.90
76567;DHT22;65428;53.194;6.132;2023-02-01T01:13:35;7.00;91.90
76567;DHT22;65428;53.194;6.132;2023-02-01T01:16:02;6.80;91.90
76567;DHT22;65428;53.194;6.132;2023-02-01T01:18:30;6.70;91.60
76567;DHT22;65428;53.194;6.132;2023-02-01T01:20:56;7.10;91.70
76567;DHT22;65428;53.194;6.132;2023-02-01T01:23:21;7.20;91.70
76567;DHT22;65428;53.194;6.132;2023-02-01T01:25:47;6.90;91.60
76567;DHT22;65428;53.194;6.132;2023-02-01T01:28:13;6.90;91.60
76567;DHT22;65428;53.194;6.132;2023-02-01T01:30:39;7.40;91.70
76567;DHT22;65428;53.194;6.132;2023-02-01T01:33:05;6.90;91.80
76567;DHT22;65428;53.194;6.132;2023-02-01T01:35:32;7.40;92.40
76567;DHT22;65428;53.194;6.132;2023-02-01T01:37:58;6.90;92.70
76567;DHT22;65428;53.194;6.132;2023-02-01T01:40:25;6.90;93.50
76567;DHT22;65428;53.194;6.132;2023-02-01T01:42:51;6.90;93.50
76567;DHT22;65428;53.194;6.132;2023-02-01T01:45:28;6.70;93.90
76567;DHT22;65428;53.194;6.132;2023-02-01T01:48:00;6.70;94.20
76567;DHT22;65428;53.194;6.132;2023-02-01T01:51:11;6.50;94.30
76567;DHT22;65428;53.194;6.132;2023-02-01T01:53:26;6.50;94.70
76567;DHT22;65428;53.194;6.132;2023-02-01T01:55:54;6.50;94.70
76567;DHT22;65428;53.194;6.132;2023-02-01T01:58:23;6.50;94.70
76567;DHT22;65428;53.194;6.132;2023-02-01T02:00:51;6.40;94.90
76567;DHT22;65428;53.194;6.132;2023-02-01T02:03:23;6.40;94.80
76567;DHT22;65428;53.194;6.132;2023-02-01T02:05:52;6.30;95.00
76567;DHT22;65428;53.194;6.132;2023-02-01T02:08:19;6.30;95.40
76567;DHT22;65428;53.194;6.132;2023-02-01T02:10:48;6.30;95.60
76567;DHT22;65428;53.194;6.132;2023-02-01T02:13:46;6.20;95.70
76567;DHT22;65428;53.194;6.132;2023-02-01T02:27:42;6.30;95.30
76567;DHT22;65428;53.194;6.132;2023-02-01T02:36:30;6.40;94.90
76567;DHT22;65428;53.194;6.132;2023-02-01T02:38:39;6.40;94.60
76567;DHT22;65428;53.194;6.132;2023-02-01T02:41:15;6.50;94.50
76567;DHT22;65428;53.194;6.132;2023-02-01T02:44:13;6.50;94.40
76567;DHT22;65428;53.194;6.132;2023-02-01T02:47:03;6.70;94.40
76567;DHT22;65428;53.194;6.132;2023-02-01T02:49:56;6.60;94.10
76567;DHT22;65428;53.194;6.132;2023-02-01T02:52:47;6.50;94.20
76567;DHT22;65428;53.194;6.132;2023-02-01T02:55:35;6.60;93.90
76567;DHT22;65428;53.194;6.132;2023-02-01T02:58:04;6.60;93.90
76567;DHT22;65428;53.194;6.132;2023-02-01T03:00:50;6.70;93.60
76567;DHT22;65428;53.194;6.132;2023-02-01T03:03:38;6.60;93.70
76567;DHT22;65428;53.194;6.132;2023-02-01T03:06:23;6.90;93.60
76567;DHT22;65428;53.194;6.132;2023-02-01T03:08:50;6.70;93.50
76567;DHT22;65428;53.194;6.132;2023-02-01T03:11:20;6.80;93.50
76567;DHT22;65428;53.194;6.132;2023-02-01T03:13:55;6.80;93.40
76567;DHT22;65428;53.194;6.132;2023-02-01T03:16:37;6.70;93.20
76567;DHT22;65428;53.194;6.132;2023-02-01T03:22:05;6.70;93.50
76567;DHT22;65428;53.194;6.132;2023-02-01T03:27:17;6.70;93.20
76567;DHT22;65428;53.194;6.132;2023-02-01T03:32:23;6.80;93.30
76567;DHT22;65428;53.194;6.132;2023-02-01T03:34:49;6.80;93.30
76567;DHT22;65428;53.194;6.132;2023-02-01T03:37:27;6.80;93.20
76567;DHT22;65428;53.194;6.132;2023-02-01T03:40:00;6.80;93.20
76567;DHT22;65428;53.194;6.132;2023-02-01T03:42:37;6.80;93.20
76567;DHT22;65428;53.194;6.132;2023-02-01T03:45:10;6.80;93.10
76567;DHT22;65428;53.194;6.132;2023-02-01T03:47:41;6.90;93.60
76567;DHT22;65428;53.194;6.132;2023-02-01T03:50:12;6.70;94.20
76567;DHT22;65428;53.194;6.132;2023-02-01T03:55:05;6.50;94.40
76567;DHT22;65428;53.194;6.132;2023-02-01T03:57:34;6.50;94.50
76567;DHT22;65428;53.194;6.132;2023-02-01T04:00:22;6.50;94.60
76567;DHT22;65428;53.194;6.132;2023-02-01T04:02:49;6.80;94.50
76567;DHT22;65428;53.194;6.132;2023-02-01T04:05:15;6.60;94.50
76567;DHT22;65428;53.194;6.132;2023-02-01T04:07:41;6.60;94.40
76567;DHT22;65428;53.194;6.132;2023-02-01T04:10:07;6.60;94.40
76567;DHT22;65428;53.194;6.132;2023-02-01T04:12:33;6.60;94.80
76567;DHT22;65428;53.194;6.132;2023-02-01T04:14:58;6.50;94.70
76567;DHT22;65428;53.194;6.132;2023-02-01T04:17:24;6.50;94.90
76567;DHT22;65428;53.194;6.132;2023-02-01T04:19:50;6.40;94.90
76567;DHT22;65428;53.194;6.132;2023-02-01T04:22:15;6.40;94.90
76567;DHT22;65428;53.194;6.132;2023-02-01T04:24:41;6.40;94.70
76567;DHT22;65428;53.194;6.132;2023-02-01T04:27:07;6.30;94.80
76567;DHT22;65428;53.194;6.132;2023-02-01T04:29:33;6.40;94.60
76567;DHT22;65428;53.194;6.132;2023-02-01T04:31:58;6.40;94.90
76567;DHT22;65428;53.194;6.132;2023-02-01T04:34:24;6.40;94.50
76567;DHT22;65428;53.194;6.132;2023-02-01T04:36:50;6.40;94.40
76567;DHT22;65428;53.194;6.132;2023-02-01T04:39:16;6.50;94.40
76567;DHT22;65428;53.194;6.132;2023-02-01T04:41:42;6.50;94.30
76567;DHT22;65428;53.194;6.132;2023-02-01T04:44:16;6.40;94.30
76567;DHT22;65428;53.194;6.132;2023-02-01T04:46:42;6.40;94.30
76567;DHT22;65428;53.194;6.132;2023-02-01T04:49:10;6.30;94.30
76567;DHT22;65428;53.194;6.132;2023-02-01T04:51:36;6.40;94.30
76567;DHT22;65428;53.194;6.132;2023-02-01T04:54:02;6.40;94.30
76567;DHT22;65428;53.194;6.132;2023-02-01T04:56:27;6.50;94.30
76567;DHT22;65428;53.194;6.132;2023-02-01T04:58:53;6.50;94.40
76567;DHT22;65428;53.194;6.132;2023-02-01T05:01:19;6.50;94.30
76567;DHT22;65428;53.194;6.132;2023-02-01T05:03:44;6.80;94.40
76567;DHT22;65428;53.194;6.132;2023-02-01T05:06:10;6.60;94.20
76567;DHT22;65428;53.194;6.132;2023-02-01T05:08:36;6.60;94.20
76567;DHT22;65428;53.194;6.132;2023-02-01T05:11:01;7.00;94.10
76567;DHT22;65428;53.194;6.132;2023-02-01T05:13:29;6.50;94.00
76567;DHT22;65428;53.194;6.132;2023-02-01T05:16:13;6.70;94.00
76567;DHT22;65428;53.194;6.132;2023-02-01T05:18:39;6.60;94.00
76567;DHT22;65428;53.194;6.132;2023-02-01T05:21:04;6.60;94.00
76567;DHT22;65428;53.194;6.132;2023-02-01T05:23:30;6.60;93.90
76567;DHT22;65428;53.194;6.132;2023-02-01T05:26:00;6.70;93.90
76567;DHT22;65428;53.194;6.132;2023-02-01T05:28:26;6.90;93.90
76567;DHT22;65428;53.194;6.132;2023-02-01T05:30:53;6.80;93.60
76567;DHT22;65428;53.194;6.132;2023-02-01T05:33:18;6.80;93.60
76567;DHT22;65428;53.194;6.132;2023-02-01T05:35:44;6.80;93.60
76567;DHT22;65428;53.194;6.132;2023-02-01T05:38:10;6.90;93.60
76567;DHT22;65428;53.194;6.132;2023-02-01T05:40:35;6.90;93.60
76567;DHT22;65428;53.194;6.132;2023-02-01T05:43:01;6.90;93.60
76567;DHT22;65428;53.194;6.132;2023-02-01T05:45:27;7.10;93.60
76567;DHT22;65428;53.194;6.132;2023-02-01T05:47:52;6.90;93.40
76567;DHT22;65428;53.194;6.132;2023-02-01T05:50:18;6.90;93.50
76567;DHT22;65428;53.194;6.132;2023-02-01T05:52:44;6.80;93.40
76567;DHT22;65428;53.194;6.132;2023-02-01T05:55:09;6.70;93.50
76567;DHT22;65428;53.194;6.132;2023-02-01T05:57:35;6.80;93.70
76567;DHT22;65428;53.194;6.132;2023-02-01T06:00:01;6.80;93.80
76567;DHT22;65428;53.194;6.132;2023-02-01T06:02:27;6.70;93.70
76567;DHT22;65428;53.194;6.132;2023-02-01T06:04:53;6.70;93.60
76567;DHT22;65428;53.194;6.132;2023-02-01T06:07:19;6.70;93.60
76567;DHT22;65428;53.194;6.132;2023-02-01T06:09:44;6.80;93.70
76567;DHT22;65428;53.194;6.132;2023-02-01T06:12:10;6.60;93.70
76567;DHT22;65428;53.194;6.132;2023-02-01T06:14:36;6.60;93.70
76567;DHT22;65428;53.194;6.132;2023-02-01T06:17:02;6.50;94.10
76567;DHT22;65428;53.194;6.132;2023-02-01T06:19:28;6.50;93.90
76567;DHT22;65428;53.194;6.132;2023-02-01T06:21:54;6.40;94.00
76567;DHT22;65428;53.194;6.132;2023-02-01T06:24:20;6.40;94.00
76567;DHT22;65428;53.194;6.132;2023-02-01T06:26:46;6.50;94.20
76567;DHT22;65428;53.194;6.132;2023-02-01T06:29:12;6.80;94.30
76567;DHT22;65428;53.194;6.132;2023-02-01T06:31:38;6.40;94.40
76567;DHT22;65428;53.194;6.132;2023-02-01T06:34:04;6.60;94.50
76567;DHT22;65428;53.194;6.132;2023-02-01T06:36:29;6.50;94.50
76567;DHT22;65428;53.194;6.132;2023-02-01T06:38:58;6.70;94.40
76567;DHT22;65428;53.194;6.132;2023-02-01T06:41:25;6.50;94.30
76567;DHT22;65428;53.194;6.132;2023-02-01T06:43:51;6.60;94.30
76567;DHT22;65428;53.194;6.132;2023-02-01T06:46:17;6.60;94.20
76567;DHT22;65428;53.194;6.132;2023-02-01T06:48:43;6.90;94.30
76567;DHT22;65428;53.194;6.132;2023-02-01T06:51:23;6.60;94.30
76567;DHT22;65428;53.194;6.132;2023-02-01T06:53:50;6.60;94.20
76567;DHT22;65428;53.194;6.132;2023-02-01T06:56:16;6.70;94.20
76567;DHT22;65428;53.194;6.132;2023-02-01T06:58:42;6.60;94.00
76567;DHT22;65428;53.194;6.132;2023-02-01T07:01:08;6.80;93.90
76567;DHT22;65428;53.194;6.132;2023-02-01T07:03:35;6.80;94.00
76567;DHT22;65428;53.194;6.132;2023-02-01T07:06:01;6.60;94.00
76567;DHT22;65428;53.194;6.132;2023-02-01T07:08:28;6.60;94.10
76567;DHT22;65428;53.194;6.132;2023-02-01T07:10:54;6.60;94.10
76567;DHT22;65428;53.194;6.132;2023-02-01T07:13:20;6.60;94.30
76567;DHT22;65428;53.194;6.132;2023-02-01T07:15:45;6.60;94.40
76567;DHT22;65428;53.194;6.132;2023-02-01T07:18:15;6.40;94.40
76567;DHT22;65428;53.194;6.132;2023-02-01T07:20:41;6.70;94.50
76567;DHT22;65428;53.194;6.132;2023-02-01T07:23:09;6.90;94.60
76567;DHT22;65428;53.194;6.132;2023-02-01T07:25:35;6.70;94.50
76567;DHT22;65428;53.194;6.132;2023-02-01T07:28:01;6.60;94.60
76567;DHT22;65428;53.194;6.132;2023-02-01T07:30:27;6.60;94.50
76567;DHT22;65428;53.194;6.132;2023-02-01T07:32:52;6.60;94.50
76567;DHT22;65428;53.194;6.132;2023-02-01T07:35:18;6.60;94.60
76567;DHT22;65428;53.194;6.132;2023-02-01T07:37:44;6.60;94.60
76567;DHT22;65428;53.194;6.132;2023-02-01T07:40:10;6.50;94.60
76567;DHT22;65428;53.194;6.132;2023-02-01T07:42:36;6.50;94.60
76567;DHT22;65428;53.194;6.132;2023-02-01T07:45:02;6.50;94.60
76567;DHT22;65428;53.194;6.132;2023-02-01T07:47:28;6.50;94.50
76567;DHT22;65428;53.194;6.132;2023-02-01T07:49:54;6.80;94.50
76567;DHT22;65428;53.194;6.132;2023-02-01T07:52:20;6.70;94.40
76567;DHT22;65428;53.194;6.132;2023-02-01T07:54:45;6.60;94.30
76567;DHT22;65428;53.194;6.132;2023-02-01T07:57:11;6.60;94.20
76567;DHT22;65428;53.194;6.132;2023-02-01T07:59:37;6.90;94.40
76567;DHT22;65428;53.194;6.132;2023-02-01T08:02:25;6.70;94.30
76567;DHT22;65428;53.194;6.132;2023-02-01T08:04:51;6.70;94.40
76567;DHT22;65428;53.194;6.132;2023-02-01T08:07:17;6.80;94.50
76567;DHT22;65428;53.194;6.132;2023-02-01T08:09:42;6.80;94.60
76567;DHT22;65428;53.194;6.132;2023-02-01T08:12:08;6.70;94.60
76567;DHT22;65428;53.194;6.132;2023-02-01T08:14:33;6.80;94.70
76567;DHT22;65428;53.194;6.132;2023-02-01T08:16:59;6.70;94.70
76567;DHT22;65428;53.194;6.132;2023-02-01T08:19:25;6.80;94.70
76567;DHT22;65428;53.194;6.132;2023-02-01T08:21:50;6.80;94.60
76567;DHT22;65428;53.194;6.132;2023-02-01T08:24:16;6.80;94.60
76567;DHT22;65428;53.194;6.132;2023-02-01T08:26:42;6.80;94.60
76567;DHT22;65428;53.194;6.132;2023-02-01T08:29:09;6.80;94.60
76567;DHT22;65428;53.194;6.132;2023-02-01T08:31:37;6.90;94.40
76567;DHT22;65428;53.194;6.132;2023-02-01T08:34:07;7.00;94.30
76567;DHT22;65428;53.194;6.132;2023-02-01T08:36:34;6.90;94.20
76567;DHT22;65428;53.194;6.132;2023-02-01T08:39:00;6.90;94.30
76567;DHT22;65428;53.194;6.132;2023-02-01T08:41:28;7.00;94.20
76567;DHT22;65428;53.194;6.132;2023-02-01T08:43:55;6.90;94.10
76567;DHT22;65428;53.194;6.132;2023-02-01T08:46:22;7.00;94.20
76567;DHT22;65428;53.194;6.132;2023-02-01T08:48:48;7.00;94.10
76567;DHT22;65428;53.194;6.132;2023-02-01T08:51:15;7.00;94.10
76567;DHT22;65428;53.194;6.132;2023-02-01T08:53:41;7.00;94.10
76567;DHT22;65428;53.194;6.132;2023-02-01T08:56:08;7.00;94.20
76567;DHT22;65428;53.194;6.132;2023-02-01T08:58:34;7.00;94.00
76567;DHT22;65428;53.194;6.132;2023-02-01T09:01:09;6.90;93.90
76567;DHT22;65428;53.194;6.132;2023-02-01T09:03:35;7.00;93.90
76567;DHT22;65428;53.194;6.132;2023-02-01T09:06:03;7.00;93.90
76567;DHT22;65428;53.194;6.132;2023-02-01T09:08:29;6.90;93.90
76567;DHT22;65428;53.194;6.132;2023-02-01T09:10:59;6.90;93.80
76567;DHT22;65428;53.194;6.132;2023-02-01T09:13:26;7.00;93.90
76567;DHT22;65428;53.194;6.132;2023-02-01T09:15:52;7.00;93.90
76567;DHT22;65428;53.194;6.132;2023-02-01T09:18:17;7.00;93.70
76567;DHT22;65428;53.194;6.132;2023-02-01T09:20:43;7.00;93.80
76567;DHT22;65428;53.194;6.132;2023-02-01T09:23:09;7.00;93.60
76567;DHT22;65428;53.194;6.132;2023-02-01T09:25:37;7.00;93.60
76567;DHT22;65428;53.194;6.132;2023-02-01T09:28:03;7.00;93.60
76567;DHT22;65428;53.194;6.132;2023-02-01T09:30:32;7.30;93.70
76567;DHT22;65428;53.194;6.132;2023-02-01T09:32:57;7.10;93.80
76567;DHT22;65428;53.194;6.132;2023-02-01T09:35:23;6.90;93.90
76567;DHT22;65428;53.194;6.132;2023-02-01T09:37:49;7.20;94.00
76567;DHT22;65428;53.194;6.132;2023-02-01T09:40:16;7.10;93.70
76567;DHT22;65428;53.194;6.132;2023-02-01T09:45:29;7.10;93.80
76567;DHT22;65428;53.194;6.132;2023-02-01T09:48:01;7.10;93.70
76567;DHT22;65428;53.194;6.132;2023-02-01T09:50:36;7.10;94.10
76567;DHT22;65428;53.194;6.132;2023-02-01T09:53:25;7.10;94.00
76567;DHT22;65428;53.194;6.132;2023-02-01T09:59:31;7.00;94.10
76567;DHT22;65428;53.194;6.132;2023-02-01T10:02:02;7.00;94.00
76567;DHT22;65428;53.194;6.132;2023-02-01T10:04:29;7.00;93.80
76567;DHT22;65428;53.194;6.132;2023-02-01T10:07:21;7.00;93.80
76567;DHT22;65428;53.194;6.132;2023-02-01T10:09:59;7.10;93.80
76567;DHT22;65428;53.194;6.132;2023-02-01T10:15:37;7.10;93.60
76567;DHT22;65428;53.194;6.132;2023-02-01T10:18:45;7.20;93.50
76567;DHT22;65428;53.194;6.132;2023-02-01T10:24:17;7.20;93.40
76567;DHT22;65428;53.194;6.132;2023-02-01T10:26:50;7.40;93.60
76567;DHT22;65428;53.194;6.132;2023-02-01T10:29:20;7.50;93.40
76567;DHT22;65428;53.194;6.132;2023-02-01T10:31:46;7.40;93.30
76567;DHT22;65428;53.194;6.132;2023-02-01T10:34:21;7.70;93.30
76567;DHT22;65428;53.194;6.132;2023-02-01T10:36:55;7.50;93.10
76567;DHT22;65428;53.194;6.132;2023-02-01T10:39:21;7.60;93.10
76567;DHT22;65428;53.194;6.132;2023-02-01T10:41:47;7.60;93.10
76567;DHT22;65428;53.194;6.132;2023-02-01T10:44:17;7.60;93.00
76567;DHT22;65428;53.194;6.132;2023-02-01T10:46:43;7.60;92.80
76567;DHT22;65428;53.194;6.132;2023-02-01T10:49:16;7.60;92.70
76567;DHT22;65428;53.194;6.132;2023-02-01T10:51:47;7.60;92.70
76567;DHT22;65428;53.194;6.132;2023-02-01T10:54:18;7.60;92.50
76567;DHT22;65428;53.194;6.132;2023-02-01T10:56:46;7.70;92.60
76567;DHT22;65428;53.194;6.132;2023-02-01T10:59:20;7.70;92.70
76567;DHT22;65428;53.194;6.132;2023-02-01T11:01:49;7.70;92.80
76567;DHT22;65428;53.194;6.132;2023-02-01T11:04:19;7.80;92.90
76567;DHT22;65428;53.194;6.132;2023-02-01T11:06:52;7.80;92.80
76567;DHT22;65428;53.194;6.132;2023-02-01T11:09:24;7.70;92.90
76567;DHT22;65428;53.194;6.132;2023-02-01T11:19:37;7.80;92.50
76567;DHT22;65428;53.194;6.132;2023-02-01T11:22:04;7.90;92.40
76567;DHT22;65428;53.194;6.132;2023-02-01T11:24:35;8.10;92.80
76567;DHT22;65428;53.194;6.132;2023-02-01T11:27:12;7.80;94.00
76567;DHT22;65428;53.194;6.132;2023-02-01T11:29:42;7.70;94.40
76567;DHT22;65428;53.194;6.132;2023-02-01T11:32:09;7.90;94.60
76567;DHT22;65428;53.194;6.132;2023-02-01T11:35:19;7.60;94.40
76567;DHT22;65428;53.194;6.132;2023-02-01T11:39:59;7.80;94.40
76567;DHT22;65428;53.194;6.132;2023-02-01T11:42:26;7.80;94.10
76567;DHT22;65428;53.194;6.132;2023-02-01T11:45:20;7.90;93.70
76567;DHT22;65428;53.194;6.132;2023-02-01T11:47:46;8.00;93.50
76567;DHT22;65428;53.194;6.132;2023-02-01T11:50:20;8.10;93.20
76567;DHT22;65428;53.194;6.132;2023-02-01T11:53:13;8.20;92.90
76567;DHT22;65428;53.194;6.132;2023-02-01T12:07:02;8.40;92.20
76567;DHT22;65428;53.194;6.132;2023-02-01T12:09:51;8.60;92.20
76567;DHT22;65428;53.194;6.132;2023-02-01T12:12:22;8.70;91.60
76567;DHT22;65428;53.194;6.132;2023-02-01T12:25:44;8.60;92.40
76567;DHT22;65428;53.194;6.132;2023-02-01T12:28:37;8.60;91.90
76567;DHT22;65428;53.194;6.132;2023-02-01T12:31:24;8.60;91.80
76567;DHT22;65428;53.194;6.132;2023-02-01T12:36:59;8.70;92.30
76567;DHT22;65428;53.194;6.132;2023-02-01T12:39:47;8.80;92.30
76567;DHT22;65428;53.194;6.132;2023-02-01T12:42:22;8.90;91.80
76567;DHT22;65428;53.194;6.132;2023-02-01T12:47:39;8.80;92.30
76567;DHT22;65428;53.194;6.132;2023-02-01T12:50:22;8.60;92.40
76567;DHT22;65428;53.194;6.132;2023-02-01T12:52:52;8.60;92.20
76567;DHT22;65428;53.194;6.132;2023-02-01T12:57:53;8.60;92.50
76567;DHT22;65428;53.194;6.132;2023-02-01T13:06:06;8.60;92.70
76567;DHT22;65428;53.194;6.132;2023-02-01T13:08:46;8.60;92.90
76567;DHT22;65428;53.194;6.132;2023-02-01T13:11:22;8.60;93.00
76567;DHT22;65428;53.194;6.132;2023-02-01T13:14:11;8.70;92.70
76567;DHT22;65428;53.194;6.132;2023-02-01T13:16:46;8.60;92.60
76567;DHT22;65428;53.194;6.132;2023-02-01T13:21:57;8.50;92.70
76567;DHT22;65428;53.194;6.132;2023-02-01T13:25:10;8.70;92.80
76567;DHT22;65428;53.194;6.132;2023-02-01T13:27:26;8.50;92.80
76567;DHT22;65428;53.194;6.132;2023-02-01T13:35:06;8.60;92.60
76567;DHT22;65428;53.194;6.132;2023-02-01T13:42:59;8.50;92.90
76567;DHT22;65428;53.194;6.132;2023-02-01T13:45:33;8.50;92.80
76567;DHT22;65428;53.194;6.132;2023-02-01T13:48:04;8.60;92.80
76567;DHT22;65428;53.194;6.132;2023-02-01T13:50:39;8.60;93.00
76567;DHT22;65428;53.194;6.132;2023-02-01T13:55:40;8.50;92.90
76567;DHT22;65428;53.194;6.132;2023-02-01T14:00:45;8.40;93.30
76567;DHT22;65428;53.194;6.132;2023-02-01T14:03:19;8.70;93.50
76567;DHT22;65428;53.194;6.132;2023-02-01T14:08:23;8.60;93.50
76567;DHT22;65428;53.194;6.132;2023-02-01T14:10:57;8.50;93.40
76567;DHT22;65428;53.194;6.132;2023-02-01T14:13:36;8.50;93.20
76567;DHT22;65428;53.194;6.132;2023-02-01T14:21:32;8.50;92.70
76567;DHT22;65428;53.194;6.132;2023-02-01T14:24:23;8.50;93.00
76567;DHT22;65428;53.194;6.132;2023-02-01T14:26:51;8.50;92.70
76567;DHT22;65428;53.194;6.132;2023-02-01T14:34:38;8.80;93.00
76567;DHT22;65428;53.194;6.132;2023-02-01T14:37:27;8.80;92.90
76567;DHT22;65428;53.194;6.132;2023-02-01T14:40:00;8.60;93.00
76567;DHT22;65428;53.194;6.132;2023-02-01T14:42:44;8.60;93.00
76567;DHT22;65428;53.194;6.132;2023-02-01T14:48:39;8.60;93.20
76567;DHT22;65428;53.194;6.132;2023-02-01T14:50:47;8.50;93.00
76567;DHT22;65428;53.194;6.132;2023-02-01T14:53:17;8.40;92.90
76567;DHT22;65428;53.194;6.132;2023-02-01T14:58:35;8.30;93.40
76567;DHT22;65428;53.194;6.132;2023-02-01T15:01:17;8.30;93.20
76567;DHT22;65428;53.194;6.132;2023-02-01T15:04:06;8.40;93.40
76567;DHT22;65428;53.194;6.132;2023-02-01T15:09:32;8.20;93.30
76567;DHT22;65428;53.194;6.132;2023-02-01T15:12:16;8.20;93.10
76567;DHT22;65428;53.194;6.132;2023-02-01T15:15:16;8.10;93.20
76567;DHT22;65428;53.194;6.132;2023-02-01T15:17:57;8.20;93.10
76567;DHT22;65428;53.194;6.132;2023-02-01T15:20:31;8.20;93.10
76567;DHT22;65428;53.194;6.132;2023-02-01T15:23:02;8.50;93.00
76567;DHT22;65428;53.194;6.132;2023-02-01T15:25:31;8.30;92.90
76567;DHT22;65428;53.194;6.132;2023-02-01T15:27:57;8.30;92.80
76567;DHT22;65428;53.194;6.132;2023-02-01T15:30:26;8.30;92.50
76567;DHT22;65428;53.194;6.132;2023-02-01T15:33:03;8.50;92.60
76567;DHT22;65428;53.194;6.132;2023-02-01T15:35:37;8.40;92.70
76567;DHT22;65428;53.194;6.132;2023-02-01T15:41:02;8.10;93.10
76567;DHT22;65428;53.194;6.132;2023-02-01T15:43:32;8.00;93.10
76567;DHT22;65428;53.194;6.132;2023-02-01T15:46:00;8.10;93.30
76567;DHT22;65428;53.194;6.132;2023-02-01T15:48:39;8.00;93.20
76567;DHT22;65428;53.194;6.132;2023-02-01T15:51:10;8.00;93.20
76567;DHT22;65428;53.194;6.132;2023-02-01T15:53:36;7.80;93.00
76567;DHT22;65428;53.194;6.132;2023-02-01T15:56:04;8.00;93.10
76567;DHT22;65428;53.194;6.132;2023-02-01T15:58:30;7.60;92.90
76567;DHT22;65428;53.194;6.132;2023-02-01T16:01:03;7.60;92.80
76567;DHT22;65428;53.194;6.132;2023-02-01T16:03:44;7.50;92.80
76567;DHT22;65428;53.194;6.132;2023-02-01T16:09:00;7.50;92.80
76567;DHT22;65428;53.194;6.132;2023-02-01T16:11:31;7.40;92.70
76567;DHT22;65428;53.194;6.132;2023-02-01T16:14:01;7.60;92.80
76567;DHT22;65428;53.194;6.132;2023-02-01T16:16:28;7.40;92.80
76567;DHT22;65428;53.194;6.132;2023-02-01T16:18:54;7.60;92.90
76567;DHT22;65428;53.194;6.132;2023-02-01T16:21:20;7.40;92.80
76567;DHT22;65428;53.194;6.132;2023-02-01T16:23:52;7.30;92.80
76567;DHT22;65428;53.194;6.132;2023-02-01T16:26:19;7.30;92.90
76567;DHT22;65428;53.194;6.132;2023-02-01T16:28:45;7.30;93.00
76567;DHT22;65428;53.194;6.132;2023-02-01T16:31:16;7.20;93.00
76567;DHT22;65428;53.194;6.132;2023-02-01T16:33:51;7.20;93.30
76567;DHT22;65428;53.194;6.132;2023-02-01T16:36:17;7.00;93.60
76567;DHT22;65428;53.194;6.132;2023-02-01T16:38:44;7.30;93.80
76567;DHT22;65428;53.194;6.132;2023-02-01T16:41:13;7.10;93.80
76567;DHT22;65428;53.194;6.132;2023-02-01T16:43:39;7.10;93.80
76567;DHT22;65428;53.194;6.132;2023-02-01T16:46:05;7.10;94.30
76567;DHT22;65428;53.194;6.132;2023-02-01T16:48:37;7.00;94.50
76567;DHT22;65428;53.194;6.132;2023-02-01T16:51:12;7.20;94.90
76567;DHT22;65428;53.194;6.132;2023-02-01T16:53:38;7.00;95.00
76567;DHT22;65428;53.194;6.132;2023-02-01T16:56:17;7.20;95.10
76567;DHT22;65428;53.194;6.132;2023-02-01T16:58:43;7.00;95.10
76567;DHT22;65428;53.194;6.132;2023-02-01T17:01:10;7.10;95.10
76567;DHT22;65428;53.194;6.132;2023-02-01T17:03:36;7.30;95.10
76567;DHT22;65428;53.194;6.132;2023-02-01T17:06:03;7.20;95.00
76567;DHT22;65428;53.194;6.132;2023-02-01T17:08:35;7.00;94.90
76567;DHT22;65428;53.194;6.132;2023-02-01T17:11:02;7.00;94.50
76567;DHT22;65428;53.194;6.132;2023-02-01T17:13:28;7.00;94.20
76567;DHT22;65428;53.194;6.132;2023-02-01T17:18:58;7.00;93.40
76567;DHT22;65428;53.194;6.132;2023-02-01T17:21:26;7.00;92.80
76567;DHT22;65428;53.194;6.132;2023-02-01T17:23:53;7.10;92.70
76567;DHT22;65428;53.194;6.132;2023-02-01T17:26:20;7.10;92.60
76567;DHT22;65428;53.194;6.132;2023-02-01T17:28:46;7.20;92.20
76567;DHT22;65428;53.194;6.132;2023-02-01T17:31:13;7.00;91.90
76567;DHT22;65428;53.194;6.132;2023-02-01T17:33:43;7.20;92.10
76567;DHT22;65428;53.194;6.132;2023-02-01T17:36:12;7.20;91.60
76567;DHT22;65428;53.194;6.132;2023-02-01T17:38:38;7.00;91.30
76567;DHT22;65428;53.194;6.132;2023-02-01T17:41:04;6.90;91.10
76567;DHT22;65428;53.194;6.132;2023-02-01T17:43:30;7.40;91.20
76567;DHT22;65428;53.194;6.132;2023-02-01T17:48:37;6.90;90.70
76567;DHT22;65428;53.194;6.132;2023-02-01T17:51:04;7.00;90.80
76567;DHT22;65428;53.194;6.132;2023-02-01T17:53:30;6.90;90.70
76567;DHT22;65428;53.194;6.132;2023-02-01T17:55:58;6.90;90.90
76567;DHT22;65428;53.194;6.132;2023-02-01T17:58:24;7.10;91.10
76567;DHT22;65428;53.194;6.132;2023-02-01T18:00:51;7.00;91.40
76567;DHT22;65428;53.194;6.132;2023-02-01T18:03:28;7.10;91.50
76567;DHT22;65428;53.194;6.132;2023-02-01T18:05:58;6.90;91.50
76567;DHT22;65428;53.194;6.132;2023-02-01T18:08:29;7.10;91.90
76567;DHT22;65428;53.194;6.132;2023-02-01T18:10:56;7.10;92.10
76567;DHT22;65428;53.194;6.132;2023-02-01T18:13:26;7.30;92.20
76567;DHT22;65428;53.194;6.132;2023-02-01T18:15:52;7.00;92.10
76567;DHT22;65428;53.194;6.132;2023-02-01T18:18:18;7.00;92.10
76567;DHT22;65428;53.194;6.132;2023-02-01T18:20:45;7.30;92.10
76567;DHT22;65428;53.194;6.132;2023-02-01T18:23:14;7.20;91.90